sensor_id;sensor_type;location;lat;lon;timestamp;pressure;altitude;pressure_sealevel;temperature;humidity
21185;BME280;18176;49.502;11.754;2023-02-03T00:02:30;97803.09;;;4.19;100.00
21185;BME280;18176;49.502;11.754;2023-02-03T00:06:30;97787.44;;;4.42;100.00
21185;BME280;18176;49.502;11.754;2023-02-03T00:10:33;97792.50;;;4.43;100.00
21185;BME280;18176;49.502;11.754;2023-02-03T00:14:36;97797.28;;;4.70;100.00
21185;BME280;18176;49.502;11.754;2023-02-03T00:18:36;97795.03;;;4.59;100.00
21185;BME280;18176;49.502;11.754;2023-02-03T00:22:37;97809.31;;;4.65;100.00
21185;BME280;18176;49.502;11.754;2023-02-03T00:26:40;97799.81;;;4.86;100.00
21185;BME280;18176;49.502;11.754;2023-02-03T00:30:43;97799.00;;;4.86;100.00
21185;BME280;18176;49.502;11.754;2023-02-03T00:34:44;97805.72;;;4.88;100.00
21185;BME280;18176;49.502;11.754;2023-02-03T00:38:45;97800.19;;;4.83;100.00
21185;BME280;18176;49.502;11.754;2023-02-03T00:42:45;97795.91;;;4.82;100.00
21185;BME280;18176;49.502;11.754;2023-02-03T00:46:47;97802.94;;;4.90;100.00
21185;BME280;18176;49.502;11.754;2023-02-03T00:50:48;97797.72;;;5.13;100.00
21185;BME280;18176;49.502;11.754;2023-02-03T00:54:48;97793.38;;;5.20;100.00
21185;BME280;18176;49.502;11.754;2023-02-03T00:58:48;97796.44;;;5.31;100.00
21185;BME280;18176;49.502;11.754;2023-02-03T01:02:51;97795.00;;;5.21;100.00
21185;BME280;18176;49.502;11.754;2023-02-03T01:06:51;97794.72;;;5.61;100.00
21185;BME280;18176;49.502;11.754;2023-02-03T01:10:53;97788.44;;;5.25;100.00
21185;BME280;18176;49.502;11.754;2023-02-03T01:14:53;97802.97;;;5.35;100.00
21185;BME280;18176;49.502;11.754;2023-02-03T01:18:56;97768.63;;;4.91;100.00
21185;BME280;18176;49.502;11.754;2023-02-03T01:22:57;97776.22;;;5.32;100.00
21185;BME280;18176;49.502;11.754;2023-02-03T01:26:58;97785.41;;;5.50;100.00
21185;BME280;18176;49.502;11.754;2023-02-03T01:31:10;97780.44;;;5.41;100.00
21185;BME280;18176;49.502;11.754;2023-02-03T01:35:13;97793.16;;;5.52;100.00
21185;BME280;18176;49.502;11.754;2023-02-03T01:39:13;97784.78;;;5.26;100.00
21185;BME280;18176;49.502;11.754;2023-02-03T01:43:30;97783.31;;;5.46;100.00
21185;BME280;18176;49.502;11.754;2023-02-03T01:47:34;97779.72;;;5.47;100.00
21185;BME280;18176;49.502;11.754;2023-02-03T01:51:41;97774.09;;;5.50;100.00
21185;BME280;18176;49.502;11.754;2023-02-03T01:55:48;97756.09;;;5.39;100.00
21185;BME280;18176;49.502;11.754;2023-02-03T01:59:53;97758.88;;;5.60;100.00
21185;BME280;18176;49.502;11.754;2023-02-03T02:04:00;97745.59;;;5.39;100.00
21185;BME280;18176;49.502;11.754;2023-02-03T02:08:06;97742.28;;;5.59;100.00
21185;BME280;18176;49.502;11.754;2023-02-03T02:12:08;97730.06;;;5.52;100.00
21185;BME280;18176;49.502;11.754;2023-02-03T02:16:14;97716.50;;;5.78;99.89
21185;BME280;18176;49.502;11.754;2023-02-03T02:21:09;97707.28;;;5.96;98.15
21185;BME280;18176;49.502;11.754;2023-02-03T02:25:47;97697.34;;;5.69;99.45
21185;BME280;18176;49.502;11.754;2023-02-03T02:35:02;97717.47;;;5.77;100.00
21185;BME280;18176;49.502;11.754;2023-02-03T02:39:12;97710.44;;;5.92;99.82
21185;BME280;18176;49.502;11.754;2023-02-03T02:43:23;97716.03;;;5.74;100.00
21185;BME280;18176;49.502;11.754;2023-02-03T02:47:28;97724.19;;;5.79;100.00
21185;BME280;18176;49.502;11.754;2023-02-03T02:51:33;97717.81;;;5.96;100.00
21185;BME280;18176;49.502;11.754;2023-02-03T02:55:38;97710.44;;;5.92;99.35
21185;BME280;18176;49.502;11.754;2023-02-03T02:59:40;97703.56;;;6.05;99.31
21185;BME280;18176;49.502;11.754;2023-02-03T03:03:41;97686.56;;;6.22;98.20
21185;BME280;18176;49.502;11.754;2023-02-03T03:07:50;97703.63;;;6.26;97.72
21185;BME280;18176;49.502;11.754;2023-02-03T03:12:01;97709.53;;;6.14;98.87
21185;BME280;18176;49.502;11.754;2023-02-03T03:16:06;97707.28;;;5.96;98.97
21185;BME280;18176;49.502;11.754;2023-02-03T03:20:15;97713.19;;;5.98;98.96
21185;BME280;18176;49.502;11.754;2023-02-03T03:24:24;97712.59;;;6.17;98.25
21185;BME280;18176;49.502;11.754;2023-02-03T03:28:35;97719.44;;;5.97;98.89
21185;BME280;18176;49.502;11.754;2023-02-03T03:32:37;97708.97;;;5.75;100.00
21185;BME280;18176;49.502;11.754;2023-02-03T03:36:43;97698.47;;;6.04;99.24
21185;BME280;18176;49.502;11.754;2023-02-03T03:40:57;97690.22;;;6.21;98.70
21185;BME280;18176;49.502;11.754;2023-02-03T03:45:08;97717.25;;;6.15;98.97
21185;BME280;18176;49.502;11.754;2023-02-03T03:49:10;97748.81;;;6.15;98.71
21185;BME280;18176;49.502;11.754;2023-02-03T03:53:15;97733.94;;;5.93;98.90
21185;BME280;18176;49.502;11.754;2023-02-03T03:57:24;97744.28;;;6.09;98.32
21185;BME280;18176;49.502;11.754;2023-02-03T04:01:28;97733.94;;;5.93;99.63
21185;BME280;18176;49.502;11.754;2023-02-03T04:05:30;97736.47;;;6.01;99.56
21185;BME280;18176;49.502;11.754;2023-02-03T04:09:30;97715.41;;;5.72;100.00
21185;BME280;18176;49.502;11.754;2023-02-03T04:13:35;97719.50;;;6.04;99.92
21185;BME280;18176;49.502;11.754;2023-02-03T04:17:35;97726.16;;;6.14;99.62
21185;BME280;18176;49.502;11.754;2023-02-03T04:21:35;97727.06;;;6.21;99.01
21185;BME280;18176;49.502;11.754;2023-02-03T04:25:35;97728.78;;;6.00;100.00
21185;BME280;18176;49.502;11.754;2023-02-03T04:29:38;97714.88;;;6.06;99.41
21185;BME280;18176;49.502;11.754;2023-02-03T04:33:38;97703.63;;;6.26;99.13
21185;BME280;18176;49.502;11.754;2023-02-03T04:37:38;97697.09;;;6.22;98.12
21185;BME280;18176;49.502;11.754;2023-02-03T04:41:38;97702.16;;;6.38;97.62
21185;BME280;18176;49.502;11.754;2023-02-03T04:45:41;97686.41;;;6.09;98.90
21185;BME280;18176;49.502;11.754;2023-02-03T04:49:41;97666.44;;;6.15;97.63
21185;BME280;18176;49.502;11.754;2023-02-03T04:53:41;97680.78;;;6.12;98.78
21185;BME280;18176;49.502;11.754;2023-02-03T04:57:41;97680.06;;;6.18;98.64
21185;BME280;18176;49.502;11.754;2023-02-03T05:01:44;97681.50;;;6.06;98.63
21185;BME280;18176;49.502;11.754;2023-02-03T05:05:44;97698.31;;;6.56;95.64
21185;BME280;18176;49.502;11.754;2023-02-03T05:09:44;97688.66;;;6.63;95.45
21185;BME280;18176;49.502;11.754;2023-02-03T05:13:45;97702.91;;;6.32;97.45
21185;BME280;18176;49.502;11.754;2023-02-03T05:17:47;97690.44;;;6.41;96.29
21185;BME280;18176;49.502;11.754;2023-02-03T05:21:47;97662.19;;;6.50;95.27
21185;BME280;18176;49.502;11.754;2023-02-03T05:25:48;97687.09;;;6.32;96.22
21185;BME280;18176;49.502;11.754;2023-02-03T05:29:48;97685.66;;;6.15;97.56
21185;BME280;18176;49.502;11.754;2023-02-03T05:33:51;97695.81;;;6.33;97.39
21185;BME280;18176;49.502;11.754;2023-02-03T05:37:51;97714.03;;;6.49;95.75
21185;BME280;18176;49.502;11.754;2023-02-03T05:41:51;97713.34;;;6.62;94.89
21185;BME280;18176;49.502;11.754;2023-02-03T05:45:58;97731.22;;;6.01;97.06
21185;BME280;18176;49.502;11.754;2023-02-03T05:50:01;97690.78;;;6.02;98.06
21185;BME280;18176;49.502;11.754;2023-02-03T05:54:01;97685.59;;;6.09;97.12
21185;BME280;18176;49.502;11.754;2023-02-03T05:58:01;97685.72;;;6.36;96.08
21185;BME280;18176;49.502;11.754;2023-02-03T06:02:01;97657.25;;;6.25;96.52
21185;BME280;18176;49.502;11.754;2023-02-03T06:06:04;97672.28;;;6.46;95.42
21185;BME280;18176;49.502;11.754;2023-02-03T06:10:06;97646.38;;;6.50;95.10
21185;BME280;18176;49.502;11.754;2023-02-03T06:14:07;97632.44;;;6.49;95.00
21185;BME280;18176;49.502;11.754;2023-02-03T06:18:08;97631.97;;;6.46;95.05
21185;BME280;18176;49.502;11.754;2023-02-03T06:22:11;97625.69;;;6.68;94.56
21185;BME280;18176;49.502;11.754;2023-02-03T06:26:12;97610.94;;;6.67;92.73
21185;BME280;18176;49.502;11.754;2023-02-03T06:30:13;97584.53;;;6.39;94.04
21185;BME280;18176;49.502;11.754;2023-02-03T06:34:13;97581.94;;;6.46;94.88
21185;BME280;18176;49.502;11.754;2023-02-03T06:38:16;97614.44;;;6.53;94.28
21185;BME280;18176;49.502;11.754;2023-02-03T06:42:16;97599.09;;;6.20;94.09
21185;BME280;18176;49.502;11.754;2023-02-03T06:46:16;97602.25;;;6.52;93.13
21185;BME280;18176;49.502;11.754;2023-02-03T06:50:17;97594.25;;;6.60;92.18
21185;BME280;18176;49.502;11.754;2023-02-03T06:54:20;97606.03;;;6.64;92.60
21185;BME280;18176;49.502;11.754;2023-02-03T06:58:21;97594.84;;;6.41;92.78
21185;BME280;18176;49.502;11.754;2023-02-03T07:02:21;97622.94;;;6.55;92.42
21185;BME280;18176;49.502;11.754;2023-02-03T07:06:21;97622.69;;;6.71;91.38
21185;BME280;18176;49.502;11.754;2023-02-03T07:10:27;97601.69;;;6.56;90.34
21185;BME280;18176;49.502;11.754;2023-02-03T07:14:28;97598.63;;;6.95;89.89
21185;BME280;18176;49.502;11.754;2023-02-03T07:18:28;97593.47;;;6.66;90.78
21185;BME280;18176;49.502;11.754;2023-02-03T07:22:44;97603.66;;;6.69;90.53
21185;BME280;18176;49.502;11.754;2023-02-03T07:26:47;97629.34;;;6.67;89.97
21185;BME280;18176;49.502;11.754;2023-02-03T07:30:50;97599.16;;;6.63;89.76
21185;BME280;18176;49.502;11.754;2023-02-03T07:35:00;97631.22;;;6.52;91.49
21185;BME280;18176;49.502;11.754;2023-02-03T07:39:06;97636.94;;;6.55;92.23
21185;BME280;18176;49.502;11.754;2023-02-03T07:43:11;97656.97;;;6.56;91.65
21185;BME280;18176;49.502;11.754;2023-02-03T07:47:26;97651.59;;;6.43;92.24
21185;BME280;18176;49.502;11.754;2023-02-03T07:51:30;97645.06;;;6.39;92.89
21185;BME280;18176;49.502;11.754;2023-02-03T07:55:31;97652.16;;;6.60;92.99
21185;BME280;18176;49.502;11.754;2023-02-03T07:59:45;97655.44;;;6.62;92.33
21185;BME280;18176;49.502;11.754;2023-02-03T08:03:45;97667.97;;;6.60;92.55
21185;BME280;18176;49.502;11.754;2023-02-03T08:07:45;97639.88;;;6.46;92.48
21185;BME280;18176;49.502;11.754;2023-02-03T08:11:46;97636.25;;;6.47;93.08
21185;BME280;18176;49.502;11.754;2023-02-03T08:15:51;97648.69;;;6.38;93.45
21185;BME280;18176;49.502;11.754;2023-02-03T08:19:53;97646.94;;;6.45;92.87
21185;BME280;18176;49.502;11.754;2023-02-03T08:23:55;97664.09;;;6.56;91.83
21185;BME280;18176;49.502;11.754;2023-02-03T08:27:57;97638.13;;;6.74;90.21
21185;BME280;18176;49.502;11.754;2023-02-03T08:32:01;97639.25;;;6.65;90.67
21185;BME280;18176;49.502;11.754;2023-02-03T08:36:03;97633.38;;;6.63;90.83
21185;BME280;18176;49.502;11.754;2023-02-03T08:40:11;97643.03;;;6.77;90.25
21185;BME280;18176;49.502;11.754;2023-02-03T08:44:12;97641.75;;;6.73;90.53
21185;BME280;18176;49.502;11.754;2023-02-03T08:48:17;97624.06;;;6.46;91.80
21185;BME280;18176;49.502;11.754;2023-02-03T08:52:22;97626.34;;;6.70;91.68
21185;BME280;18176;49.502;11.754;2023-02-03T08:56:23;97614.81;;;6.71;91.65
21185;BME280;18176;49.502;11.754;2023-02-03T09:00:25;97614.53;;;6.66;91.83
21185;BME280;18176;49.502;11.754;2023-02-03T09:04:30;97619.13;;;6.78;90.04
21185;BME280;18176;49.502;11.754;2023-02-03T09:08:31;97624.16;;;6.73;90.20
21185;BME280;18176;49.502;11.754;2023-02-03T09:12:35;97612.78;;;6.94;88.72
21185;BME280;18176;49.502;11.754;2023-02-03T09:16:36;97596.44;;;7.33;86.54
21185;BME280;18176;49.502;11.754;2023-02-03T09:20:45;97589.03;;;7.15;86.65
21185;BME280;18176;49.502;11.754;2023-02-03T09:24:46;97601.31;;;7.29;86.18
21185;BME280;18176;49.502;11.754;2023-02-03T09:28:48;97570.78;;;7.14;85.59
21185;BME280;18176;49.502;11.754;2023-02-03T09:32:51;97605.19;;;7.74;83.43
21185;BME280;18176;49.502;11.754;2023-02-03T09:36:56;97608.97;;;7.58;85.13
21185;BME280;18176;49.502;11.754;2023-02-03T09:41:01;97566.09;;;7.43;84.97
21185;BME280;18176;49.502;11.754;2023-02-03T09:45:19;97566.56;;;7.60;84.30
21185;BME280;18176;49.502;11.754;2023-02-03T09:49:28;97536.78;;;7.59;84.01
21185;BME280;18176;49.502;11.754;2023-02-03T09:53:42;97552.41;;;7.67;83.32
21185;BME280;18176;49.502;11.754;2023-02-03T09:57:51;97573.22;;;7.90;82.52
21185;BME280;18176;49.502;11.754;2023-02-03T10:02:01;97572.34;;;7.76;83.44
21185;BME280;18176;49.502;11.754;2023-02-03T10:06:17;97575.25;;;7.88;82.20
21185;BME280;18176;49.502;11.754;2023-02-03T10:10:37;97631.47;;;7.89;82.20
21185;BME280;18176;49.502;11.754;2023-02-03T10:14:57;97579.59;;;7.61;84.30
21185;BME280;18176;49.502;11.754;2023-02-03T10:19:14;97616.34;;;7.35;85.79
21185;BME280;18176;49.502;11.754;2023-02-03T10:23:22;97586.78;;;7.46;85.62
21185;BME280;18176;49.502;11.754;2023-02-03T10:27:31;97509.41;;;6.92;87.36
21185;BME280;18176;49.502;11.754;2023-02-03T10:31:39;97518.13;;;7.20;86.28
21185;BME280;18176;49.502;11.754;2023-02-03T10:35:50;97412.28;;;6.76;84.84
21185;BME280;18176;49.502;11.754;2023-02-03T10:39:56;97531.28;;;7.54;85.61
21185;BME280;18176;49.502;11.754;2023-02-03T10:44:09;97530.97;;;7.77;83.58
21185;BME280;18176;49.502;11.754;2023-02-03T10:48:17;97491.75;;;7.67;83.71
21185;BME280;18176;49.502;11.754;2023-02-03T10:52:30;97503.63;;;7.44;84.32
21185;BME280;18176;49.502;11.754;2023-02-03T10:56:38;97512.69;;;7.75;84.36
21185;BME280;18176;49.502;11.754;2023-02-03T11:00:43;97506.97;;;7.65;84.86
21185;BME280;18176;49.502;11.754;2023-02-03T11:04:44;97496.03;;;7.68;84.61
21185;BME280;18176;49.502;11.754;2023-02-03T11:08:48;97474.00;;;7.42;85.67
21185;BME280;18176;49.502;11.754;2023-02-03T11:12:51;97474.00;;;7.42;84.48
21185;BME280;18176;49.502;11.754;2023-02-03T11:17:08;97414.44;;;7.60;82.27
21185;BME280;18176;49.502;11.754;2023-02-03T11:21:17;97422.59;;;7.85;81.22
21185;BME280;18176;49.502;11.754;2023-02-03T11:25:25;97372.47;;;7.78;81.14
21185;BME280;18176;49.502;11.754;2023-02-03T11:29:34;97350.38;;;7.66;80.23
21185;BME280;18176;49.502;11.754;2023-02-03T11:33:39;97431.78;;;8.09;81.07
21185;BME280;18176;49.502;11.754;2023-02-03T11:37:42;97327.13;;;7.16;81.42
21185;BME280;18176;49.502;11.754;2023-02-03T11:41:44;97409.25;;;8.00;80.58
21185;BME280;18176;49.502;11.754;2023-02-03T11:45:49;97371.69;;;7.78;81.56
21185;BME280;18176;49.502;11.754;2023-02-03T11:50:24;97419.78;;;7.80;82.50
21185;BME280;18176;49.502;11.754;2023-02-03T11:54:37;97404.78;;;7.94;82.51
21185;BME280;18176;49.502;11.754;2023-02-03T12:04:21;97424.00;;;7.61;84.23
21185;BME280;18176;49.502;11.754;2023-02-03T12:08:59;97395.22;;;7.93;82.81
21185;BME280;18176;49.502;11.754;2023-02-03T12:13:23;97442.53;;;7.94;82.03
21185;BME280;18176;49.502;11.754;2023-02-03T12:17:47;97431.94;;;7.74;82.41
21185;BME280;18176;49.502;11.754;2023-02-03T12:22:03;97404.75;;;7.80;82.25
21185;BME280;18176;49.502;11.754;2023-02-03T12:26:19;97352.97;;;7.53;83.03
21185;BME280;18176;49.502;11.754;2023-02-03T12:30:29;97347.53;;;7.81;81.95
21185;BME280;18176;49.502;11.754;2023-02-03T12:34:37;97368.22;;;7.91;82.06
21185;BME280;18176;49.502;11.754;2023-02-03T12:38:46;97323.78;;;7.88;81.60
21185;BME280;18176;49.502;11.754;2023-02-03T12:42:56;97356.03;;;7.70;82.72
21185;BME280;18176;49.502;11.754;2023-02-03T12:47:06;97342.66;;;7.91;82.96
21185;BME280;18176;49.502;11.754;2023-02-03T12:51:19;97358.28;;;7.79;83.86
21185;BME280;18176;49.502;11.754;2023-02-03T12:55:31;97387.66;;;7.50;85.22
21185;BME280;18176;49.502;11.754;2023-02-03T12:59:39;97363.72;;;7.58;86.40
21185;BME280;18176;49.502;11.754;2023-02-03T13:03:47;97327.25;;;7.68;85.40
21185;BME280;18176;49.502;11.754;2023-02-03T13:07:58;97315.66;;;7.43;86.52
21185;BME280;18176;49.502;11.754;2023-02-03T13:12:10;97296.81;;;7.72;85.62
21185;BME280;18176;49.502;11.754;2023-02-03T13:16:18;97284.22;;;7.61;86.03
21185;BME280;18176;49.502;11.754;2023-02-03T13:20:23;97299.63;;;7.64;86.75
21185;BME280;18176;49.502;11.754;2023-02-03T13:24:27;97277.72;;;7.44;86.92
21185;BME280;18176;49.502;11.754;2023-02-03T13:28:53;97254.97;;;7.24;88.33
21185;BME280;18176;49.502;11.754;2023-02-03T13:33:36;97277.09;;;7.55;88.60
21185;BME280;18176;49.502;11.754;2023-02-03T13:38:12;97189.69;;;7.19;90.83
21185;BME280;18176;49.502;11.754;2023-02-03T13:42:23;97219.72;;;7.31;92.35
21185;BME280;18176;49.502;11.754;2023-02-03T13:46:30;97168.81;;;7.24;92.35
21185;BME280;18176;49.502;11.754;2023-02-03T13:50:36;97191.75;;;7.43;92.97
21185;BME280;18176;49.502;11.754;2023-02-03T13:54:43;97167.41;;;7.28;92.97
21185;BME280;18176;49.502;11.754;2023-02-03T13:59:00;97198.63;;;7.38;93.15
21185;BME280;18176;49.502;11.754;2023-02-03T14:03:01;97181.16;;;7.63;90.75
21185;BME280;18176;49.502;11.754;2023-02-03T14:07:28;97241.63;;;7.77;90.36
21185;BME280;18176;49.502;11.754;2023-02-03T14:11:41;97239.97;;;7.76;90.45
21185;BME280;18176;49.502;11.754;2023-02-03T14:15:44;97251.34;;;7.77;89.55
21185;BME280;18176;49.502;11.754;2023-02-03T14:19:55;97247.28;;;7.74;90.51
21185;BME280;18176;49.502;11.754;2023-02-03T14:24:05;97272.44;;;7.90;89.70
21185;BME280;18176;49.502;11.754;2023-02-03T14:28:12;97254.56;;;7.92;90.15
21185;BME280;18176;49.502;11.754;2023-02-03T14:32:15;97260.28;;;7.83;91.01
21185;BME280;18176;49.502;11.754;2023-02-03T14:36:36;97249.34;;;7.59;91.74
21185;BME280;18176;49.502;11.754;2023-02-03T14:40:49;97262.72;;;7.51;92.41
21185;BME280;18176;49.502;11.754;2023-02-03T14:45:09;97287.88;;;7.73;91.66
21185;BME280;18176;49.502;11.754;2023-02-03T14:49:46;97252.16;;;7.64;92.77
21185;BME280;18176;49.502;11.754;2023-02-03T14:54:09;97257.66;;;7.56;93.14
21185;BME280;18176;49.502;11.754;2023-02-03T14:58:27;97257.66;;;7.56;94.41
21185;BME280;18176;49.502;11.754;2023-02-03T15:02:32;97253.81;;;7.46;94.57
21185;BME280;18176;49.502;11.754;2023-02-03T15:06:42;97268.19;;;7.56;94.41
21185;BME280;18176;49.502;11.754;2023-02-03T15:10:43;97250.53;;;7.37;94.70
21185;BME280;18176;49.502;11.754;2023-02-03T15:14:47;97278.94;;;7.74;93.98
21185;BME280;18176;49.502;11.754;2023-02-03T15:18:55;97259.88;;;7.33;96.12
21185;BME280;18176;49.502;11.754;2023-02-03T15:22:56;97311.63;;;7.73;95.08
21185;BME280;18176;49.502;11.754;2023-02-03T15:26:57;97299.84;;;7.83;94.05
21185;BME280;18176;49.502;11.754;2023-02-03T15:31:06;97281.78;;;7.79;94.06
21185;BME280;18176;49.502;11.754;2023-02-03T15:35:16;97299.22;;;7.74;94.37
21185;BME280;18176;49.502;11.754;2023-02-03T15:39:32;97283.81;;;7.64;95.04
21185;BME280;18176;49.502;11.754;2023-02-03T15:43:39;97263.91;;;7.29;96.66
21185;BME280;18176;49.502;11.754;2023-02-03T15:47:49;97275.91;;;7.51;95.97
21185;BME280;18176;49.502;11.754;2023-02-03T15:51:55;97270.78;;;7.30;96.93
21185;BME280;18176;49.502;11.754;2023-02-03T15:56:00;97264.56;;;7.57;95.11
21185;BME280;18176;49.502;11.754;2023-02-03T16:00:17;97210.41;;;7.55;96.07
21185;BME280;18176;49.502;11.754;2023-02-03T16:04:26;97172.69;;;7.15;96.86
21185;BME280;18176;49.502;11.754;2023-02-03T16:08:37;97196.59;;;7.46;97.28
21185;BME280;18176;49.502;11.754;2023-02-03T16:12:41;97232.50;;;7.47;96.99
21185;BME280;18176;49.502;11.754;2023-02-03T16:16:48;97229.88;;;7.34;97.16
21185;BME280;18176;49.502;11.754;2023-02-03T16:21:05;97222.75;;;7.67;95.78
21185;BME280;18176;49.502;11.754;2023-02-03T16:25:16;97232.28;;;7.29;98.06
21185;BME280;18176;49.502;11.754;2023-02-03T16:29:34;97264.72;;;7.62;96.56
21185;BME280;18176;49.502;11.754;2023-02-03T16:33:49;97273.28;;;7.77;95.91
21185;BME280;18176;49.502;11.754;2023-02-03T16:38:14;97290.69;;;7.85;95.11
21185;BME280;18176;49.502;11.754;2023-02-03T16:42:37;97294.56;;;7.63;97.30
21185;BME280;18176;49.502;11.754;2023-02-03T16:46:52;97298.03;;;7.63;97.95
21185;BME280;18176;49.502;11.754;2023-02-03T16:51:16;97303.72;;;7.73;98.07
21185;BME280;18176;49.502;11.754;2023-02-03T16:55:23;97310.59;;;7.74;97.64
21185;BME280;18176;49.502;11.754;2023-02-03T16:59:25;97306.16;;;7.68;98.35
21185;BME280;18176;49.502;11.754;2023-02-03T17:03:28;97315.88;;;7.55;99.27
21185;BME280;18176;49.502;11.754;2023-02-03T17:07:32;97308.97;;;7.60;98.81
21185;BME280;18176;49.502;11.754;2023-02-03T17:11:37;97308.34;;;7.71;97.91
21185;BME280;18176;49.502;11.754;2023-02-03T17:15:40;97317.88;;;7.92;97.75
21185;BME280;18176;49.502;11.754;2023-02-03T17:19:44;97290.50;;;7.67;98.70
21185;BME280;18176;49.502;11.754;2023-02-03T17:23:46;97316.66;;;7.49;100.00
21185;BME280;18176;49.502;11.754;2023-02-03T17:27:58;97306.50;;;7.39;100.00
21185;BME280;18176;49.502;11.754;2023-02-03T17:32:09;97323.94;;;7.40;100.00
21185;BME280;18176;49.502;11.754;2023-02-03T17:36:18;97324.00;;;7.66;100.00
21185;BME280;18176;49.502;11.754;2023-02-03T17:40:21;97288.47;;;7.49;99.56
21185;BME280;18176;49.502;11.754;2023-02-03T17:44:40;97346.31;;;7.57;100.00
21185;BME280;18176;49.502;11.754;2023-02-03T17:49:00;97359.72;;;7.82;99.06
21185;BME280;18176;49.502;11.754;2023-02-03T17:53:19;97360.13;;;7.99;98.21
21185;BME280;18176;49.502;11.754;2023-02-03T17:57:27;97378.38;;;8.07;97.42
21185;BME280;18176;49.502;11.754;2023-02-03T18:01:36;97376.38;;;7.96;97.77
21185;BME280;18176;49.502;11.754;2023-02-03T18:05:39;97338.19;;;7.78;98.69
21185;BME280;18176;49.502;11.754;2023-02-03T18:09:59;97367.41;;;7.84;98.53
21185;BME280;18176;49.502;11.754;2023-02-03T18:14:04;97374.16;;;8.06;97.12
21185;BME280;18176;49.502;11.754;2023-02-03T18:18:13;97388.53;;;7.84;98.66
21185;BME280;18176;49.502;11.754;2023-02-03T18:22:18;97405.16;;;7.91;99.03
21185;BME280;18176;49.502;11.754;2023-02-03T18:26:22;97396.22;;;7.72;99.87
21185;BME280;18176;49.502;11.754;2023-02-03T18:30:29;97408.84;;;7.90;99.84
21185;BME280;18176;49.502;11.754;2023-02-03T18:34:41;97411.88;;;8.13;98.48
21185;BME280;18176;49.502;11.754;2023-02-03T18:38:47;97291.94;;;7.50;97.86
21185;BME280;18176;49.502;11.754;2023-02-03T18:42:52;97414.53;;;8.13;98.13
21185;BME280;18176;49.502;11.754;2023-02-03T18:47:01;97430.78;;;8.23;97.40
21185;BME280;18176;49.502;11.754;2023-02-03T18:51:22;97413.91;;;8.11;97.58
21185;BME280;18176;49.502;11.754;2023-02-03T18:55:48;97459.25;;;8.34;96.76
21185;BME280;18176;49.502;11.754;2023-02-03T19:00:08;97461.88;;;8.27;97.03
21185;BME280;18176;49.502;11.754;2023-02-03T19:04:12;97452.34;;;8.33;96.78
21185;BME280;18176;49.502;11.754;2023-02-03T19:08:24;97449.47;;;8.15;97.00
21185;BME280;18176;49.502;11.754;2023-02-03T19:12:37;97367.81;;;7.67;96.41
21185;BME280;18176;49.502;11.754;2023-02-03T19:16:46;97453.50;;;8.04;96.86
21185;BME280;18176;49.502;11.754;2023-02-03T19:20:51;97326.72;;;7.19;96.30
21185;BME280;18176;49.502;11.754;2023-02-03T19:25:01;97483.13;;;8.13;95.75
21185;BME280;18176;49.502;11.754;2023-02-03T19:29:08;97452.66;;;7.91;95.10
21185;BME280;18176;49.502;11.754;2023-02-03T19:33:17;97348.66;;;7.26;95.04
21185;BME280;18176;49.502;11.754;2023-02-03T19:37:34;97395.75;;;7.49;95.11
21185;BME280;18176;49.502;11.754;2023-02-03T19:41:41;97445.38;;;7.99;93.36
21185;BME280;18176;49.502;11.754;2023-02-03T19:45:49;97501.44;;;8.08;93.46
21185;BME280;18176;49.502;11.754;2023-02-03T19:49:50;97450.03;;;7.84;92.38
21185;BME280;18176;49.502;11.754;2023-02-03T19:53:58;97511.38;;;8.12;93.14
21185;BME280;18176;49.502;11.754;2023-02-03T19:58:03;97531.00;;;7.97;92.92
21185;BME280;18176;49.502;11.754;2023-02-03T20:02:05;97484.09;;;7.86;92.56
21185;BME280;18176;49.502;11.754;2023-02-03T20:06:15;97530.41;;;8.01;91.29
21185;BME280;18176;49.502;11.754;2023-02-03T20:10:22;97389.09;;;6.99;91.72
21185;BME280;18176;49.502;11.754;2023-02-03T20:14:30;97542.75;;;7.88;90.71
21185;BME280;18176;49.502;11.754;2023-02-03T20:18:35;97523.19;;;7.62;91.08
21185;BME280;18176;49.502;11.754;2023-02-03T20:22:40;97514.41;;;7.49;90.58
21185;BME280;18176;49.502;11.754;2023-02-03T20:26:43;97545.97;;;7.76;90.78
21185;BME280;18176;49.502;11.754;2023-02-03T20:30:49;97542.00;;;7.53;90.38
21185;BME280;18176;49.502;11.754;2023-02-03T20:34:50;97545.47;;;7.60;90.61
21185;BME280;18176;49.502;11.754;2023-02-03T20:38:52;97540.34;;;7.45;90.52
21185;BME280;18176;49.502;11.754;2023-02-03T20:42:56;97512.31;;;7.38;89.88
21185;BME280;18176;49.502;11.754;2023-02-03T20:47:10;97553.63;;;7.65;89.45
21185;BME280;18176;49.502;11.754;2023-02-03T20:51:17;97565.84;;;7.72;88.46
21185;BME280;18176;49.502;11.754;2023-02-03T20:55:22;97544.91;;;7.30;88.00
21185;BME280;18176;49.502;11.754;2023-02-03T20:59:27;97549.44;;;7.36;88.19
21185;BME280;18176;49.502;11.754;2023-02-03T21:03:32;97518.31;;;6.91;87.76
21185;BME280;18176;49.502;11.754;2023-02-03T21:07:47;97542.13;;;6.76;88.20
21185;BME280;18176;49.502;11.754;2023-02-03T21:11:50;97582.91;;;7.08;86.87
21185;BME280;18176;49.502;11.754;2023-02-03T21:15:53;97587.38;;;7.14;85.49
21185;BME280;18176;49.502;11.754;2023-02-03T21:19:59;97590.75;;;7.29;84.67
21185;BME280;18176;49.502;11.754;2023-02-03T21:24:20;97579.72;;;7.19;84.50
21185;BME280;18176;49.502;11.754;2023-02-03T21:28:24;97608.44;;;7.35;84.24
21185;BME280;18176;49.502;11.754;2023-02-03T21:32:39;97576.97;;;7.27;84.04
21185;BME280;18176;49.502;11.754;2023-02-03T21:36:45;97539.97;;;7.14;83.87
21185;BME280;18176;49.502;11.754;2023-02-03T21:40:49;97579.91;;;7.45;84.74
21185;BME280;18176;49.502;11.754;2023-02-03T21:44:51;97582.97;;;7.21;87.24
21185;BME280;18176;49.502;11.754;2023-02-03T21:48:53;97596.41;;;7.26;87.88
21185;BME280;18176;49.502;11.754;2023-02-03T21:53:20;97550.78;;;6.98;87.88
21185;BME280;18176;49.502;11.754;2023-02-03T21:57:24;97588.06;;;6.95;87.27